Station Historical Data
Daily Summary for February 14, 2018 Units:  English    Metric   Both
« Previous Day
Next Day »
Daily Weekly Monthly Yearly Custom
  High: Low: Average:
Temperature: 53.1 °F 31.2 °F 41.3 °F
Dew Point: 42.9 °F 27.7 °F 36 °F
Humidity: 92 % 65 % 82 %
Wind Speed: 6.0 mph 0.0 mph 0.4 mph
Wind Gust: 9.0 mph - -
Wind:- - SSW
Pressure: 30.60 in 30.09 in -
Precipitation: 0.02 in    
Historical Graphs
 
 
Tabular Data for February 14, 2018
Time Temperature Dew Point Pressure Wind Wind Speed Wind Gust Humidity Rainfall Rate (Hourly)
00:04 36.0 °F 30.1 °F 30.60 in Calm   2.0 mph 79 % 0.00 in
00:09 36.0 °F 30.1 °F 30.60 in Calm   2.0 mph 79 % 0.00 in
00:14 36.0 °F 30.1 °F 30.60 in Calm   2.0 mph 79 % 0.00 in
00:19 36.0 °F 30.1 °F 30.60 in Calm   1.0 mph 79 % 0.00 in
00:24 36.0 °F 30.1 °F 30.60 in Calm   1.0 mph 79 % 0.00 in
00:29 35.9 °F 30.0 °F 30.59 in Calm   1.0 mph 79 % 0.00 in
00:34 35.9 °F 30.0 °F 30.59 in Calm   1.0 mph 79 % 0.00 in
00:39 35.9 °F 30.0 °F 30.58 in Calm   1.0 mph 79 % 0.00 in
00:44 35.9 °F 30.0 °F 30.59 in Calm   1.0 mph 79 % 0.00 in
00:49 35.9 °F 30.0 °F 30.59 in Calm   1.0 mph 79 % 0.00 in
00:54 35.8 °F 29.9 °F 30.58 in Calm   1.0 mph 79 % 0.00 in
00:59 35.7 °F 29.8 °F 30.58 in Calm   1.0 mph 79 % 0.00 in
01:04 35.6 °F 29.7 °F 30.58 in Calm   1.0 mph 79 % 0.00 in
01:09 35.5 °F 29.7 °F 30.58 in Calm   1.0 mph 79 % 0.00 in
01:14 35.3 °F 29.5 °F 30.58 in Calm   1.0 mph 79 % 0.00 in
01:19 35.0 °F 29.2 °F 30.58 in Calm   1.0 mph 79 % 0.00 in
01:24 34.8 °F 29.3 °F 30.57 in Calm   1.0 mph 80 % 0.00 in
01:29 34.6 °F 29.1 °F 30.57 in Calm   1.0 mph 80 % 0.00 in
01:34 34.4 °F 29.2 °F 30.56 in Calm     81 % 0.00 in
01:39 34.3 °F 29.1 °F 30.56 in Calm   1.0 mph 81 % 0.00 in
01:44 34.1 °F 29.2 °F 30.56 in Calm   1.0 mph 82 % 0.00 in
01:49 34.0 °F 29.1 °F 30.55 in Calm   1.0 mph 82 % 0.00 in
01:54 33.9 °F 29.0 °F 30.55 in Calm   1.0 mph 82 % 0.00 in
01:59 33.8 °F 28.9 °F 30.55 in Calm     82 % 0.00 in
02:04 33.5 °F 28.6 °F 30.56 in Calm     82 % 0.00 in
02:09 33.3 °F 28.7 °F 30.56 in Calm     83 % 0.00 in
02:14 33.1 °F 28.5 °F 30.55 in Calm     83 % 0.00 in
02:19 32.9 °F 28.3 °F 30.55 in Calm     83 % 0.00 in
02:24 32.7 °F 28.4 °F 30.54 in Calm     84 % 0.00 in
02:29 32.5 °F 28.2 °F 30.53 in Calm     84 % 0.00 in
02:34 32.5 °F 28.5 °F 30.52 in Calm     85 % 0.00 in
02:39 32.4 °F 28.4 °F 30.52 in Calm     85 % 0.00 in
02:44 32.3 °F 28.3 °F 30.53 in Calm     85 % 0.00 in
02:49 32.2 °F 28.2 °F 30.53 in Calm     85 % 0.00 in
02:54 32.1 °F 28.1 °F 30.53 in Calm     85 % 0.00 in
02:59 32.0 °F 28.3 °F 30.53 in Calm   1.0 mph 86 % 0.00 in
03:04 31.8 °F 28.1 °F 30.52 in Calm   1.0 mph 86 % 0.00 in
03:09 31.7 °F 28.0 °F 30.52 in Calm   1.0 mph 86 % 0.00 in
03:14 31.5 °F 27.8 °F 30.51 in Calm     86 % 0.00 in
03:19 31.5 °F 28.0 °F 30.51 in Calm     87 % 0.00 in
03:24 31.4 °F 27.9 °F 30.50 in Calm     87 % 0.00 in
03:29 31.4 °F 27.9 °F 30.50 in Calm     87 % 0.00 in
03:34 31.2 °F 27.7 °F 30.50 in Calm     87 % 0.00 in
03:39 31.3 °F 28.1 °F 30.49 in Calm   1.0 mph 88 % 0.00 in
03:44 31.5 °F 28.3 °F 30.48 in Calm   1.0 mph 88 % 0.00 in
03:49 31.9 °F 29.0 °F 30.48 in SE 1.0 mph 2.0 mph 89 % 0.00 in
03:54 32.0 °F 28.8 °F 30.48 in Calm   3.0 mph 88 % 0.00 in
03:59 32.1 °F 28.9 °F 30.47 in Calm   3.0 mph 88 % 0.00 in
04:04 32.1 °F 28.9 °F 30.47 in Calm   3.0 mph 88 % 0.00 in
04:09 32.1 °F 28.9 °F 30.47 in Calm   3.0 mph 88 % 0.00 in
04:14 32.2 °F 29.0 °F 30.47 in Calm   1.0 mph 88 % 0.00 in
04:19 32.3 °F 29.1 °F 30.47 in Calm   1.0 mph 88 % 0.00 in
04:24 32.3 °F 29.1 °F 30.48 in Calm     88 % 0.00 in
04:29 32.3 °F 29.1 °F 30.49 in Calm   1.0 mph 88 % 0.00 in
04:34 32.4 °F 29.2 °F 30.49 in Calm   1.0 mph 88 % 0.00 in
04:39 32.3 °F 29.1 °F 30.50 in Calm   1.0 mph 88 % 0.00 in
04:44 32.2 °F 29.0 °F 30.50 in Calm   1.0 mph 88 % 0.00 in
04:49 32.0 °F 28.8 °F 30.49 in Calm   1.0 mph 88 % 0.00 in
04:54 31.9 °F 28.7 °F 30.50 in Calm   1.0 mph 88 % 0.00 in
04:59 31.7 °F 28.5 °F 30.49 in Calm   1.0 mph 88 % 0.00 in
05:04 31.5 °F 28.3 °F 30.49 in Calm     88 % 0.00 in
05:09 31.5 °F 28.3 °F 30.49 in Calm     88 % 0.00 in
05:14 31.6 °F 28.7 °F 30.49 in Calm     89 % 0.00 in
05:19 31.6 °F 28.7 °F 30.49 in Calm     89 % 0.00 in
05:24 31.6 °F 28.7 °F 30.48 in Calm     89 % 0.00 in
05:29 31.6 °F 28.7 °F 30.48 in Calm     89 % 0.00 in
05:34 31.6 °F 28.7 °F 30.48 in Calm   1.0 mph 89 % 0.00 in
05:39 31.7 °F 29.1 °F 30.47 in Calm   1.0 mph 90 % 0.00 in
05:44 31.9 °F 29.3 °F 30.47 in Calm   1.0 mph 90 % 0.00 in
05:49 32.2 °F 29.6 °F 30.47 in Calm   1.0 mph 90 % 0.00 in
05:54 32.3 °F 29.6 °F 30.47 in Calm   1.0 mph 90 % 0.00 in
05:59 32.5 °F 29.8 °F 30.47 in Calm   1.0 mph 90 % 0.00 in
06:04 32.5 °F 29.8 °F 30.47 in Calm   1.0 mph 90 % 0.00 in
06:09 32.5 °F 29.8 °F 30.46 in Calm     90 % 0.00 in
06:14 32.6 °F 29.9 °F 30.46 in Calm   1.0 mph 90 % 0.00 in
06:19 32.6 °F 29.9 °F 30.46 in Calm   1.0 mph 90 % 0.00 in
06:24 32.7 °F 30.0 °F 30.45 in Calm   1.0 mph 90 % 0.00 in
06:29 32.8 °F 30.1 °F 30.45 in Calm   1.0 mph 90 % 0.00 in
06:34 32.8 °F 30.1 °F 30.45 in Calm   3.0 mph 90 % 0.00 in
06:39 32.9 °F 30.2 °F 30.45 in Calm   3.0 mph 90 % 0.00 in
06:44 32.9 °F 30.2 °F 30.45 in Calm   3.0 mph 90 % 0.00 in
06:49 32.9 °F 30.2 °F 30.45 in Calm   3.0 mph 90 % 0.00 in
06:54 32.9 °F 30.2 °F 30.45 in Calm   1.0 mph 90 % 0.00 in
06:59 32.8 °F 30.1 °F 30.44 in Calm   1.0 mph 90 % 0.00 in
07:04 32.8 °F 30.1 °F 30.44 in Calm   1.0 mph 90 % 0.00 in
07:09 32.8 °F 30.1 °F 30.44 in Calm   2.0 mph 90 % 0.00 in
07:14 32.8 °F 30.1 °F 30.44 in Calm   3.0 mph 90 % 0.00 in
07:19 32.9 °F 30.2 °F 30.44 in Calm   3.0 mph 90 % 0.00 in
07:24 33.0 °F 30.3 °F 30.44 in Calm   3.0 mph 90 % 0.00 in
07:29 33.1 °F 30.4 °F 30.43 in Calm   4.0 mph 90 % 0.00 in
07:34 33.2 °F 30.5 °F 30.43 in ESE 1.0 mph 4.0 mph 90 % 0.00 in
07:39 33.3 °F 30.9 °F 30.43 in Calm   4.0 mph 91 % 0.00 in
07:44 33.4 °F 31.0 °F 30.44 in SSE 1.0 mph 4.0 mph 91 % 0.00 in
07:49 33.5 °F 31.1 °F 30.43 in Calm   6.0 mph 91 % 0.00 in
07:54 33.6 °F 30.9 °F 30.43 in Calm   6.0 mph 90 % 0.00 in
07:59 33.7 °F 31.0 °F 30.43 in South 1.0 mph 6.0 mph 90 % 0.00 in
08:04 33.8 °F 31.4 °F 30.43 in Calm   6.0 mph 91 % 0.00 in
08:09 33.9 °F 31.5 °F 30.44 in Calm   5.0 mph 91 % 0.00 in
08:14 34.1 °F 31.4 °F 30.44 in Calm   4.0 mph 90 % 0.00 in
08:19 34.1 °F 31.4 °F 30.44 in Calm   2.0 mph 90 % 0.00 in
08:24 34.3 °F 31.6 °F 30.44 in Calm   2.0 mph 90 % 0.00 in
08:29 34.4 °F 31.7 °F 30.43 in Calm   2.0 mph 90 % 0.00 in
08:34 34.6 °F 31.9 °F 30.43 in Calm   2.0 mph 90 % 0.00 in
08:39 34.7 °F 32.0 °F 30.44 in Calm   3.0 mph 90 % 0.00 in
08:44 34.9 °F 32.2 °F 30.44 in Calm   3.0 mph 90 % 0.00 in
08:49 35.2 °F 32.5 °F 30.44 in Calm   3.0 mph 90 % 0.00 in
08:54 35.5 °F 32.8 °F 30.43 in SSW 1.0 mph 3.0 mph 90 % 0.00 in
08:59 36.0 °F 33.3 °F 30.44 in Calm   4.0 mph 90 % 0.00 in
09:04 36.2 °F 33.2 °F 30.44 in Calm   7.0 mph 89 % 0.00 in
09:09 36.6 °F 33.6 °F 30.43 in Calm   7.0 mph 89 % 0.00 in
09:14 37.0 °F 33.7 °F 30.43 in Calm   7.0 mph 88 % 0.00 in
09:19 37.4 °F 34.1 °F 30.43 in Calm   7.0 mph 88 % 0.00 in
09:24 37.8 °F 34.2 °F 30.42 in Calm   4.0 mph 87 % 0.00 in
09:29 38.2 °F 34.4 °F 30.42 in Calm   4.0 mph 86 % 0.00 in
09:35 38.5 °F 34.4 °F 30.43 in Calm   7.0 mph 85 % 0.00 in
09:40 38.7 °F 34.3 °F 30.43 in WSW 1.0 mph 7.0 mph 84 % 0.00 in
09:44 38.9 °F 34.5 °F 30.43 in Calm   7.0 mph 84 % 0.00 in
09:49 39.4 °F 35.0 °F 30.43 in South 1.0 mph 7.0 mph 84 % 0.00 in
09:54 39.7 °F 35.0 °F 30.43 in Calm   7.0 mph 83 % 0.00 in
09:59 40.0 °F 35.0 °F 30.43 in SSW 1.0 mph 7.0 mph 82 % 0.00 in
10:04 40.5 °F 35.4 °F 30.43 in SW 1.0 mph 7.0 mph 82 % 0.00 in
10:09 40.9 °F 35.5 °F 30.43 in Calm   7.0 mph 81 % 0.00 in
10:14 41.4 °F 35.7 °F 30.42 in SW 5.0 mph 7.0 mph 80 % 0.00 in
10:19 41.8 °F 36.1 °F 30.42 in Calm   7.0 mph 80 % 0.00 in
10:24 42.4 °F 36.4 °F 30.42 in SSW 3.0 mph 6.0 mph 79 % 0.00 in
10:29 42.8 °F 36.5 °F 30.41 in SW 3.0 mph 6.0 mph 78 % 0.00 in
10:34 42.9 °F 36.2 °F 30.41 in SW 3.0 mph 7.0 mph 77 % 0.00 in
10:39 43.2 °F 36.5 °F 30.41 in Calm   7.0 mph 77 % 0.00 in
10:44 43.5 °F 36.8 °F 30.40 in SW 2.0 mph 7.0 mph 77 % 0.00 in
10:49 43.6 °F 36.6 °F 30.40 in Calm   7.0 mph 76 % 0.00 in
10:54 44.1 °F 37.4 °F 30.40 in East 1.0 mph 7.0 mph 77 % 0.00 in
10:59 44.2 °F 36.8 °F 30.39 in SW 1.0 mph 7.0 mph 75 % 0.00 in
11:04 44.2 °F 36.8 °F 30.39 in South 2.0 mph 5.0 mph 75 % 0.00 in
11:09 44.4 °F 37.4 °F 30.38 in Calm   5.0 mph 76 % 0.00 in
11:14 44.6 °F 37.2 °F 30.38 in SSW 1.0 mph 5.0 mph 75 % 0.00 in
11:19 44.7 °F 37.3 °F 30.38 in South 1.0 mph 5.0 mph 75 % 0.00 in
11:24 45.0 °F 37.6 °F 30.38 in SW 1.0 mph 6.0 mph 75 % 0.00 in
11:29 45.2 °F 37.5 °F 30.38 in Calm   6.0 mph 74 % 0.00 in
11:34 45.3 °F 37.6 °F 30.37 in Calm   6.0 mph 74 % 0.00 in
11:39 45.7 °F 38.0 °F 30.37 in Calm   6.0 mph 74 % 0.00 in
11:44 45.8 °F 37.7 °F 30.37 in SW 4.0 mph 7.0 mph 73 % 0.00 in
11:49 45.7 °F 38.0 °F 30.37 in Calm   8.0 mph 74 % 0.00 in
11:54 45.9 °F 38.2 °F 30.37 in WSW 1.0 mph 8.0 mph 74 % 0.00 in
11:59 46.0 °F 38.2 °F 30.36 in SW 1.0 mph 8.0 mph 74 % 0.00 in
12:04 46.1 °F 38.0 °F 30.37 in Calm   8.0 mph 73 % 0.00 in
12:09 46.1 °F 38.0 °F 30.37 in South 4.0 mph 5.0 mph 73 % 0.00 in
12:14 46.2 °F 38.4 °F 30.36 in SW 3.0 mph 5.0 mph 74 % 0.00 in
12:19 46.6 °F 38.8 °F 30.36 in SW 3.0 mph 5.0 mph 74 % 0.00 in
12:24 46.8 °F 38.7 °F 30.36 in Calm   5.0 mph 73 % 0.00 in
12:29 47.1 °F 39.3 °F 30.36 in Calm   4.0 mph 74 % 0.00 in
12:34 47.6 °F 39.5 °F 30.36 in SSW 1.0 mph 5.0 mph 73 % 0.00 in
12:39 48.4 °F 40.2 °F 30.35 in Calm   5.0 mph 73 % 0.00 in
12:44 48.8 °F 39.9 °F 30.35 in SW 1.0 mph 5.0 mph 71 % 0.00 in
12:49 48.8 °F 39.5 °F 30.35 in SW 1.0 mph 6.0 mph 70 % 0.00 in
12:54 48.8 °F 39.9 °F 30.35 in WSW 4.0 mph 6.0 mph 71 % 0.00 in
12:59 48.8 °F 39.5 °F 30.34 in SW 6.0 mph 8.0 mph 70 % 0.00 in
13:04 48.8 °F 39.5 °F 30.33 in SW 2.0 mph 8.0 mph 70 % 0.00 in
13:09 49.0 °F 40.1 °F 30.33 in SSW 2.0 mph 8.0 mph 71 % 0.00 in
13:14 49.4 °F 40.1 °F 30.32 in SSW 3.0 mph 8.0 mph 70 % 0.00 in
13:19 49.8 °F 40.9 °F 30.31 in SSE 2.0 mph 6.0 mph 71 % 0.00 in
13:24 50.3 °F 40.6 °F 30.31 in Calm   5.0 mph 69 % 0.00 in
13:29 50.3 °F 40.2 °F 30.30 in SW 5.0 mph 7.0 mph 68 % 0.00 in
13:34 50.3 °F 40.6 °F 30.30 in SW 1.0 mph 7.0 mph 69 % 0.00 in
13:39 50.8 °F 41.1 °F 30.30 in SW 3.0 mph 6.0 mph 69 % 0.00 in
13:44 51.1 °F 41.0 °F 30.30 in South 1.0 mph 6.0 mph 68 % 0.00 in
13:49 51.7 °F 41.6 °F 30.30 in Calm   5.0 mph 68 % 0.00 in
13:54 52.3 °F 41.8 °F 30.29 in SSE 2.0 mph 6.0 mph 67 % 0.00 in
13:59 52.9 °F 42.4 °F 30.29 in Calm   6.0 mph 67 % 0.00 in
14:04 53.1 °F 41.8 °F 30.29 in SW 2.0 mph 6.0 mph 65 % 0.00 in
14:09 53.1 °F 42.2 °F 30.29 in SE 2.0 mph 6.0 mph 66 % 0.00 in
14:14 53.0 °F 41.7 °F 30.29 in Calm   5.0 mph 65 % 0.00 in
14:19 52.7 °F 41.8 °F 30.29 in South 2.0 mph 8.0 mph 66 % 0.00 in
14:24 52.4 °F 41.9 °F 30.29 in SW 1.0 mph 8.0 mph 67 % 0.00 in
14:29 52.2 °F 41.7 °F 30.29 in SSW 1.0 mph 8.0 mph 67 % 0.00 in
14:34 52.1 °F 41.6 °F 30.29 in Calm   8.0 mph 67 % 0.00 in
14:39 52.1 °F 42.0 °F 30.28 in SSW 1.0 mph 7.0 mph 68 % 0.00 in
14:44 52.4 °F 42.3 °F 30.28 in Calm   7.0 mph 68 % 0.00 in
14:49 52.6 °F 42.1 °F 30.28 in SW 1.0 mph 7.0 mph 67 % 0.00 in
14:54 52.7 °F 42.2 °F 30.28 in WSW 3.0 mph 7.0 mph 67 % 0.00 in
14:59 52.6 °F 42.1 °F 30.28 in Calm   7.0 mph 67 % 0.00 in
15:05 52.6 °F 42.5 °F 30.27 in Calm   7.0 mph 68 % 0.00 in
15:09 52.8 °F 42.6 °F 30.27 in Calm   6.0 mph 68 % 0.00 in
15:14 52.8 °F 42.6 °F 30.27 in Calm   6.0 mph 68 % 0.00 in
15:20 52.9 °F 42.7 °F 30.27 in Calm   3.0 mph 68 % 0.00 in
15:25 52.9 °F 42.7 °F 30.27 in Calm   5.0 mph 68 % 0.00 in
15:30 52.8 °F 42.3 °F 30.27 in Calm   5.0 mph 67 % 0.00 in
15:35 52.8 °F 42.6 °F 30.27 in SSW 1.0 mph 5.0 mph 68 % 0.00 in
15:40 52.8 °F 42.6 °F 30.26 in Calm   5.0 mph 68 % 0.00 in
15:45 52.9 °F 42.7 °F 30.26 in Calm   5.0 mph 68 % 0.00 in
15:50 52.8 °F 42.3 °F 30.26 in Calm   7.0 mph 67 % 0.00 in
15:55 52.8 °F 42.6 °F 30.25 in ENE 1.0 mph 7.0 mph 68 % 0.00 in
16:00 52.8 °F 42.6 °F 30.25 in Calm   7.0 mph 68 % 0.00 in
16:05 52.7 °F 42.6 °F 30.25 in Calm   5.0 mph 68 % 0.00 in
16:10 52.6 °F 42.5 °F 30.25 in Calm   3.0 mph 68 % 0.00 in
16:15 52.3 °F 42.2 °F 30.25 in East 3.0 mph 7.0 mph 68 % 0.00 in
16:20 51.3 °F 41.2 °F 30.24 in Calm   9.0 mph 68 % 0.00 in
16:25 50.3 °F 41.0 °F 30.25 in ESE 2.0 mph 9.0 mph 70 % 0.00 in
16:30 49.6 °F 41.0 °F 30.25 in ESE 1.0 mph 9.0 mph 72 % 0.00 in
16:35 49.2 °F 40.6 °F 30.24 in Calm   7.0 mph 72 % 0.00 in
16:40 48.8 °F 40.6 °F 30.24 in Calm   6.0 mph 73 % 0.00 in
16:45 48.5 °F 40.7 °F 30.24 in Calm   5.0 mph 74 % 0.00 in
16:50 48.3 °F 40.5 °F 30.24 in Calm   5.0 mph 74 % 0.00 in
16:56 48.0 °F 40.5 °F 30.24 in ESE 2.0 mph 5.0 mph 75 % 0.00 in
17:01 47.8 °F 40.3 °F 30.24 in Calm   5.0 mph 75 % 0.00 in
17:06 47.6 °F 40.5 °F 30.24 in Calm   5.0 mph 76 % 0.00 in
17:11 47.5 °F 40.4 °F 30.23 in Calm   5.0 mph 76 % 0.00 in
17:16 47.3 °F 40.2 °F 30.23 in Calm   5.0 mph 76 % 0.00 in
17:21 47.1 °F 40.3 °F 30.23 in Calm   5.0 mph 77 % 0.00 in
17:26 46.9 °F 40.1 °F 30.23 in Calm   5.0 mph 77 % 0.00 in
17:31 46.7 °F 40.2 °F 30.22 in Calm   2.0 mph 78 % 0.00 in
17:36 46.5 °F 40.1 °F 30.22 in Calm   5.0 mph 78 % 0.00 in
17:41 46.4 °F 40.0 °F 30.22 in Calm   5.0 mph 78 % 0.00 in
17:46 46.2 °F 39.8 °F 30.23 in Calm   5.0 mph 78 % 0.00 in
17:51 46.0 °F 39.9 °F 30.23 in Calm   5.0 mph 79 % 0.00 in
17:56 45.8 °F 39.7 °F 30.22 in Calm   1.0 mph 79 % 0.00 in
18:01 45.6 °F 39.8 °F 30.22 in Calm   1.0 mph 80 % 0.00 in
18:06 45.4 °F 39.6 °F 30.22 in Calm   1.0 mph 80 % 0.00 in
18:11 45.2 °F 39.4 °F 30.22 in Calm   1.0 mph 80 % 0.00 in
18:16 45.1 °F 39.6 °F 30.21 in Calm   1.0 mph 81 % 0.00 in
18:21 44.9 °F 39.7 °F 30.21 in Calm   1.0 mph 82 % 0.00 in
18:26 44.7 °F 39.6 °F 30.21 in Calm   1.0 mph 82 % 0.00 in
18:31 44.6 °F 39.5 °F 30.21 in Calm   1.0 mph 82 % 0.00 in
18:36 44.5 °F 39.7 °F 30.21 in Calm   1.0 mph 83 % 0.00 in
18:41 44.4 °F 39.6 °F 30.21 in Calm   1.0 mph 83 % 0.00 in
18:46 44.3 °F 39.5 °F 30.20 in ESE 1.0 mph 1.0 mph 83 % 0.00 in
18:51 44.3 °F 39.8 °F 30.20 in Calm   1.0 mph 84 % 0.00 in
18:56 44.2 °F 39.7 °F 30.20 in Calm   1.0 mph 84 % 0.00 in
19:01 44.2 °F 39.7 °F 30.20 in Calm   1.0 mph 84 % 0.00 in
19:06 44.1 °F 39.6 °F 30.21 in Calm   1.0 mph 84 % 0.00 in
19:11 44.1 °F 39.9 °F 30.20 in Calm   1.0 mph 85 % 0.00 in
19:16 44.0 °F 39.8 °F 30.20 in Calm   1.0 mph 85 % 0.00 in
19:21 44.1 °F 39.9 °F 30.19 in Calm   1.0 mph 85 % 0.00 in
19:26 44.1 °F 39.9 °F 30.19 in Calm   3.0 mph 85 % 0.00 in
19:31 44.1 °F 39.9 °F 30.19 in Calm   3.0 mph 85 % 0.00 in
19:36 44.0 °F 39.8 °F 30.19 in Calm   3.0 mph 85 % 0.00 in
19:41 44.0 °F 40.1 °F 30.18 in Calm   3.0 mph 86 % 0.00 in
19:46 44.0 °F 40.1 °F 30.18 in Calm   2.0 mph 86 % 0.00 in
19:51 43.9 °F 40.0 °F 30.18 in Calm   2.0 mph 86 % 0.00 in
19:56 43.9 °F 40.0 °F 30.18 in Calm   1.0 mph 86 % 0.00 in
20:01 43.9 °F 40.0 °F 30.18 in Calm   1.0 mph 86 % 0.00 in
20:06 43.8 °F 40.2 °F 30.18 in Calm   1.0 mph 87 % 0.00 in
20:11 43.8 °F 40.2 °F 30.18 in Calm   1.0 mph 87 % 0.00 in
20:16 43.8 °F 40.2 °F 30.19 in Calm   1.0 mph 87 % 0.00 in
20:21 43.8 °F 40.2 °F 30.18 in Calm   1.0 mph 87 % 0.00 in
20:22 43.8 °F 40.2 °F 30.18 in Calm   1.0 mph 87 % 0.00 in
20:27 43.9 °F 40.3 °F 30.17 in Calm   1.0 mph 87 % 0.00 in
20:32 43.9 °F 40.5 °F 30.16 in ESE 1.0 mph 2.0 mph 88 % 0.00 in
20:37 44.0 °F 40.6 °F 30.17 in Calm   2.0 mph 88 % 0.00 in
20:42 44.0 °F 40.6 °F 30.17 in Calm   2.0 mph 88 % 0.00 in
20:47 44.0 °F 40.6 °F 30.17 in Calm   2.0 mph 88 % 0.00 in
20:52 44.0 °F 40.6 °F 30.16 in Calm   1.0 mph 88 % 0.00 in
20:57 44.0 °F 40.6 °F 30.17 in Calm   1.0 mph 88 % 0.00 in
21:02 43.9 °F 40.5 °F 30.18 in Calm   1.0 mph 88 % 0.00 in
21:07 43.9 °F 41.7 °F 30.17 in Calm     92 % 0.00 in
21:12 43.9 °F 40.5 °F 30.16 in Calm   1.0 mph 88 % 0.00 in
21:17 43.9 °F 40.5 °F 30.16 in Calm   1.0 mph 88 % 0.00 in
21:22 43.9 °F 40.5 °F 30.15 in Calm   1.0 mph 88 % 0.00 in
21:27 44.0 °F 40.6 °F 30.15 in Calm   1.0 mph 88 % 0.00 in
21:32 44.0 °F 40.6 °F 30.15 in Calm     88 % 0.00 in
21:37 44.0 °F 40.9 °F 30.14 in Calm     89 % 0.00 in
21:42 44.1 °F 41.0 °F 30.14 in Calm     89 % 0.00 in
21:47 44.1 °F 41.0 °F 30.13 in Calm     89 % 0.00 in
21:52 44.3 °F 41.2 °F 30.13 in Calm     89 % 0.00 in
21:57 44.4 °F 41.3 °F 30.14 in Calm     89 % 0.00 in
22:02 44.5 °F 41.4 °F 30.15 in Calm   1.0 mph 89 % 0.00 in
22:07 44.5 °F 41.4 °F 30.14 in Calm   1.0 mph 89 % 0.00 in
22:12 44.5 °F 41.4 °F 30.13 in Calm   1.0 mph 89 % 0.00 in
22:17 44.5 °F 41.4 °F 30.12 in Calm   1.0 mph 89 % 0.00 in
22:22 44.5 °F 41.4 °F 30.13 in Calm   1.0 mph 89 % 0.00 in
22:27 44.6 °F 41.5 °F 30.13 in Calm   2.0 mph 89 % 0.00 in
22:32 44.6 °F 41.5 °F 30.11 in Calm   2.0 mph 89 % 0.00 in
22:37 44.7 °F 41.6 °F 30.11 in Calm   2.0 mph 89 % 0.00 in
22:42 44.8 °F 41.7 °F 30.11 in Calm   2.0 mph 89 % 0.00 in
22:47 44.9 °F 41.8 °F 30.10 in Calm   2.0 mph 89 % 0.00 in
22:52 45.1 °F 42.0 °F 30.12 in Calm   1.0 mph 89 % 0.00 in
22:57 45.2 °F 42.1 °F 30.12 in Calm   2.0 mph 89 % 0.00 in
23:02 45.2 °F 42.1 °F 30.12 in Calm   2.0 mph 89 % 0.00 in
23:07 45.3 °F 42.2 °F 30.12 in Calm   2.0 mph 89 % 0.00 in
23:12 45.3 °F 42.2 °F 30.13 in Calm   2.0 mph 89 % 0.00 in
23:17 45.4 °F 42.3 °F 30.12 in Calm   2.0 mph 89 % 0.00 in
23:22 45.5 °F 42.4 °F 30.12 in Calm   2.0 mph 89 % 0.00 in
23:27 45.5 °F 42.4 °F 30.12 in Calm   2.0 mph 89 % 0.00 in
23:32 45.6 °F 42.5 °F 30.11 in Calm   1.0 mph 89 % 0.00 in
23:37 45.6 °F 42.5 °F 30.11 in Calm     89 % 0.00 in
23:42 45.6 °F 42.5 °F 30.11 in Calm     89 % 0.00 in
23:47 45.7 °F 42.6 °F 30.10 in Calm     89 % 0.00 in
23:52 45.7 °F 42.9 °F 30.10 in Calm     90 % 0.01 in
23:57 45.7 °F 42.9 °F 30.09 in Calm     90 % 0.02 in
MarylandWx.com
Compliments of Weather Underground - 6.5 mb